sensor_id;sensor_type;location;lat;lon;timestamp;pressure;altitude;pressure_sealevel;temperature;humidity
55347;BME280;41218;55.700;38.270;2023-04-07T00:03:25;100757.47;;;4.32;58.22
55347;BME280;41218;55.700;38.270;2023-04-07T00:08:25;100752.59;;;4.29;58.30
55347;BME280;41218;55.700;38.270;2023-04-07T00:13:26;100746.50;;;4.18;58.74
55347;BME280;41218;55.700;38.270;2023-04-07T00:18:27;100734.22;;;4.02;58.91
55347;BME280;41218;55.700;38.270;2023-04-07T00:23:27;100748.63;;;4.08;59.07
55347;BME280;41218;55.700;38.270;2023-04-07T00:28:28;100739.78;;;3.97;59.17
55347;BME280;41218;55.700;38.270;2023-04-07T00:33:28;100750.22;;;3.95;59.52
55347;BME280;41218;55.700;38.270;2023-04-07T00:38:28;100745.94;;;3.89;59.84
55347;BME280;41218;55.700;38.270;2023-04-07T00:43:29;100749.09;;;3.82;59.50
55347;BME280;41218;55.700;38.270;2023-04-07T00:48:30;100745.63;;;3.76;59.85
55347;BME280;41218;55.700;38.270;2023-04-07T00:53:31;100748.22;;;3.68;59.79
55347;BME280;41218;55.700;38.270;2023-04-07T00:58:31;100746.19;;;3.59;60.19
55347;BME280;41218;55.700;38.270;2023-04-07T01:03:48;100744.13;;;3.51;59.81
55347;BME280;41218;55.700;38.270;2023-04-07T01:09:24;100748.56;;;3.47;60.03
55347;BME280;41218;55.700;38.270;2023-04-07T01:14:33;100742.44;;;3.36;60.21
55347;BME280;41218;55.700;38.270;2023-04-07T01:19:48;100745.03;;;3.28;60.50
55347;BME280;41218;55.700;38.270;2023-04-07T01:25:02;100753.53;;;3.26;60.52
55347;BME280;41218;55.700;38.270;2023-04-07T01:30:10;100748.44;;;3.19;60.39
55347;BME280;41218;55.700;38.270;2023-04-07T01:35:12;100755.06;;;3.13;60.46
55347;BME280;41218;55.700;38.270;2023-04-07T01:40:14;100754.94;;;3.05;60.75
55347;BME280;41218;55.700;38.270;2023-04-07T01:45:17;100744.06;;;2.99;60.73
55347;BME280;41218;55.700;38.270;2023-04-07T01:50:18;100757.56;;;2.91;60.86
55347;BME280;41218;55.700;38.270;2023-04-07T01:55:20;100744.59;;;2.83;61.01
55347;BME280;41218;55.700;38.270;2023-04-07T02:00:21;100744.63;;;2.77;61.15
55347;BME280;41218;55.700;38.270;2023-04-07T02:05:22;100738.75;;;2.70;61.16
55347;BME280;41218;55.700;38.270;2023-04-07T02:10:23;100752.91;;;2.72;60.72
55347;BME280;41218;55.700;38.270;2023-04-07T02:15:25;100750.81;;;2.64;61.14
55347;BME280;41218;55.700;38.270;2023-04-07T02:20:27;100751.75;;;2.54;61.36
55347;BME280;41218;55.700;38.270;2023-04-07T02:25:28;100753.38;;;2.55;60.98
55347;BME280;41218;55.700;38.270;2023-04-07T02:30:29;100755.69;;;2.43;61.28
55347;BME280;41218;55.700;38.270;2023-04-07T02:35:30;100757.69;;;2.37;61.30
55347;BME280;41218;55.700;38.270;2023-04-07T02:40:30;100758.03;;;2.31;61.51
55347;BME280;41218;55.700;38.270;2023-04-07T02:45:31;100759.69;;;2.27;61.47
55347;BME280;41218;55.700;38.270;2023-04-07T02:50:31;100748.38;;;2.14;61.08
55347;BME280;41218;55.700;38.270;2023-04-07T02:55:32;100765.50;;;2.20;61.38
55347;BME280;41218;55.700;38.270;2023-04-07T03:00:33;100779.19;;;2.15;60.90
55347;BME280;41218;55.700;38.270;2023-04-07T03:05:33;100777.59;;;2.09;61.69
55347;BME280;41218;55.700;38.270;2023-04-07T03:10:34;100779.78;;;2.12;61.39
55347;BME280;41218;55.700;38.270;2023-04-07T03:15:35;100779.25;;;2.10;61.24
55347;BME280;41218;55.700;38.270;2023-04-07T03:20:36;100774.59;;;2.10;61.24
55347;BME280;41218;55.700;38.270;2023-04-07T03:25:36;100773.00;;;2.09;61.04
55347;BME280;41218;55.700;38.270;2023-04-07T03:30:37;100782.31;;;2.03;60.78
55347;BME280;41218;55.700;38.270;2023-04-07T03:35:38;100785.34;;;2.02;61.17
55347;BME280;41218;55.700;38.270;2023-04-07T03:40:38;100795.19;;;1.97;60.78
55347;BME280;41218;55.700;38.270;2023-04-07T03:45:39;100797.94;;;1.92;60.88
55347;BME280;41218;55.700;38.270;2023-04-07T03:50:40;100797.19;;;1.87;60.36
55347;BME280;41218;55.700;38.270;2023-04-07T03:55:41;100786.03;;;1.83;60.65
55347;BME280;41218;55.700;38.270;2023-04-07T04:00:41;100801.25;;;1.89;60.68
55347;BME280;41218;55.700;38.270;2023-04-07T04:05:42;100802.88;;;1.90;60.52
55347;BME280;41218;55.700;38.270;2023-04-07T04:10:42;100806.66;;;1.94;60.32
55347;BME280;41218;55.700;38.270;2023-04-07T04:15:43;100804.78;;;1.90;60.10
55347;BME280;41218;55.700;38.270;2023-04-07T04:20:44;100811.56;;;1.92;59.53
55347;BME280;41218;55.700;38.270;2023-04-07T04:25:44;100812.94;;;1.95;59.67
55347;BME280;41218;55.700;38.270;2023-04-07T04:30:45;100814.53;;;2.01;59.55
55347;BME280;41218;55.700;38.270;2023-04-07T04:35:45;100809.81;;;2.07;59.27
55347;BME280;41218;55.700;38.270;2023-04-07T04:40:46;100821.75;;;2.16;59.27
55347;BME280;41218;55.700;38.270;2023-04-07T04:45:46;100823.03;;;2.24;58.75
55347;BME280;41218;55.700;38.270;2023-04-07T04:50:47;100829.78;;;2.31;58.60
55347;BME280;41218;55.700;38.270;2023-04-07T04:55:47;100825.59;;;2.39;58.31
55347;BME280;41218;55.700;38.270;2023-04-07T05:00:54;100830.75;;;2.46;57.68
55347;BME280;41218;55.700;38.270;2023-04-07T05:05:58;100842.59;;;2.60;58.09
55347;BME280;41218;55.700;38.270;2023-04-07T05:10:58;100836.72;;;2.72;57.79
55347;BME280;41218;55.700;38.270;2023-04-07T05:15:59;100840.59;;;2.90;57.51
55347;BME280;41218;55.700;38.270;2023-04-07T05:21:00;100847.84;;;2.99;57.37
55347;BME280;41218;55.700;38.270;2023-04-07T05:26:03;100849.66;;;3.09;57.01
55347;BME280;41218;55.700;38.270;2023-04-07T05:31:04;100850.28;;;3.25;56.65
55347;BME280;41218;55.700;38.270;2023-04-07T05:36:04;100853.97;;;3.34;56.47
55347;BME280;41218;55.700;38.270;2023-04-07T05:41:06;100854.28;;;3.52;56.50
55347;BME280;41218;55.700;38.270;2023-04-07T05:46:06;100845.13;;;3.61;55.89
55347;BME280;41218;55.700;38.270;2023-04-07T05:51:07;100857.16;;;3.79;55.96
55347;BME280;41218;55.700;38.270;2023-04-07T05:56:07;100864.00;;;3.96;55.53
55347;BME280;41218;55.700;38.270;2023-04-07T06:01:08;100858.50;;;4.15;55.12
55347;BME280;41218;55.700;38.270;2023-04-07T06:06:08;100862.38;;;4.28;55.07
55347;BME280;41218;55.700;38.270;2023-04-07T06:11:09;100861.53;;;4.46;55.16
55347;BME280;41218;55.700;38.270;2023-04-07T06:16:09;100863.06;;;4.66;54.55
55347;BME280;41218;55.700;38.270;2023-04-07T06:21:10;100853.44;;;4.82;54.43
55347;BME280;41218;55.700;38.270;2023-04-07T06:26:11;100862.88;;;5.04;54.11
55347;BME280;41218;55.700;38.270;2023-04-07T06:31:12;100856.44;;;5.22;53.80
55347;BME280;41218;55.700;38.270;2023-04-07T06:36:12;100868.41;;;5.40;52.73
55347;BME280;41218;55.700;38.270;2023-04-07T06:41:13;100865.50;;;5.59;53.11
55347;BME280;41218;55.700;38.270;2023-04-07T06:46:17;100873.97;;;5.86;52.70
55347;BME280;41218;55.700;38.270;2023-04-07T06:51:17;100871.59;;;6.07;52.37
55347;BME280;41218;55.700;38.270;2023-04-07T06:56:18;100875.94;;;6.30;51.41
55347;BME280;41218;55.700;38.270;2023-04-07T07:01:18;100862.63;;;6.46;51.76
55347;BME280;41218;55.700;38.270;2023-04-07T07:06:19;100863.53;;;6.64;51.45
55347;BME280;41218;55.700;38.270;2023-04-07T07:11:19;100874.94;;;6.89;50.68
55347;BME280;41218;55.700;38.270;2023-04-07T07:16:20;100868.84;;;7.09;50.75
55347;BME280;41218;55.700;38.270;2023-04-07T07:21:23;100865.50;;;7.30;49.71
55347;BME280;41218;55.700;38.270;2023-04-07T07:26:23;100861.34;;;7.50;48.29
55347;BME280;41218;55.700;38.270;2023-04-07T07:31:24;100864.28;;;7.62;48.29
55347;BME280;41218;55.700;38.270;2023-04-07T07:36:24;100877.38;;;7.82;47.97
55347;BME280;41218;55.700;38.270;2023-04-07T07:41:25;100877.72;;;7.98;46.66
55347;BME280;41218;55.700;38.270;2023-04-07T07:46:26;100888.72;;;8.16;47.50
55347;BME280;41218;55.700;38.270;2023-04-07T07:51:27;100863.75;;;8.21;46.60
55347;BME280;41218;55.700;38.270;2023-04-07T07:56:28;100873.94;;;8.38;46.28
55347;BME280;41218;55.700;38.270;2023-04-07T08:01:28;100871.69;;;8.49;44.39
55347;BME280;41218;55.700;38.270;2023-04-07T08:06:30;100871.97;;;8.65;44.91
55347;BME280;41218;55.700;38.270;2023-04-07T08:11:31;100866.88;;;8.75;44.05
55347;BME280;41218;55.700;38.270;2023-04-07T08:16:31;100874.50;;;8.78;43.23
55347;BME280;41218;55.700;38.270;2023-04-07T08:21:32;100881.13;;;8.86;41.39
55347;BME280;41218;55.700;38.270;2023-04-07T08:26:32;100873.19;;;8.85;41.27
55347;BME280;41218;55.700;38.270;2023-04-07T08:31:33;100878.03;;;8.88;41.85
55347;BME280;41218;55.700;38.270;2023-04-07T08:36:33;100872.66;;;8.91;41.40
55347;BME280;41218;55.700;38.270;2023-04-07T08:41:39;100863.06;;;8.97;40.85
55347;BME280;41218;55.700;38.270;2023-04-07T08:46:40;100868.06;;;9.04;40.96
55347;BME280;41218;55.700;38.270;2023-04-07T08:51:45;100871.88;;;9.20;40.87
55347;BME280;41218;55.700;38.270;2023-04-07T08:56:46;100861.44;;;9.26;40.53
55347;BME280;41218;55.700;38.270;2023-04-07T09:01:47;100869.06;;;9.29;39.94
55347;BME280;41218;55.700;38.270;2023-04-07T09:06:48;100870.63;;;9.39;39.91
55347;BME280;41218;55.700;38.270;2023-04-07T09:11:49;100871.13;;;9.41;39.62
55347;BME280;41218;55.700;38.270;2023-04-07T09:16:50;100862.47;;;9.42;38.89
55347;BME280;41218;55.700;38.270;2023-04-07T09:21:52;100859.31;;;9.32;39.00
55347;BME280;41218;55.700;38.270;2023-04-07T09:27:15;100857.03;;;9.34;38.80
55347;BME280;41218;55.700;38.270;2023-04-07T09:32:35;100849.28;;;9.48;39.52
55347;BME280;41218;55.700;38.270;2023-04-07T09:37:40;100866.81;;;9.52;37.75
55347;BME280;41218;55.700;38.270;2023-04-07T09:42:47;100834.38;;;9.49;37.47
55347;BME280;41218;55.700;38.270;2023-04-07T09:47:48;100846.41;;;9.66;39.54
55347;BME280;41218;55.700;38.270;2023-04-07T09:52:52;100845.53;;;9.74;38.48
55347;BME280;41218;55.700;38.270;2023-04-07T09:57:53;100851.13;;;9.86;38.80
55347;BME280;41218;55.700;38.270;2023-04-07T10:02:57;100842.09;;;9.98;39.04
55347;BME280;41218;55.700;38.270;2023-04-07T10:07:59;100860.72;;;10.01;38.64
55347;BME280;41218;55.700;38.270;2023-04-07T10:13:04;100849.81;;;10.05;37.60
55347;BME280;41218;55.700;38.270;2023-04-07T10:18:06;100847.31;;;10.12;38.70
55347;BME280;41218;55.700;38.270;2023-04-07T10:23:48;100847.69;;;10.22;37.44
55347;BME280;41218;55.700;38.270;2023-04-07T10:28:55;100845.19;;;10.30;37.69
55347;BME280;41218;55.700;38.270;2023-04-07T10:33:58;100841.31;;;10.31;38.16
55347;BME280;41218;55.700;38.270;2023-04-07T10:44:09;100849.34;;;10.36;37.56
55347;BME280;41218;55.700;38.270;2023-04-07T10:49:31;100845.31;;;10.33;38.02
55347;BME280;41218;55.700;38.270;2023-04-07T10:54:33;100847.66;;;10.43;37.61
55347;BME280;41218;55.700;38.270;2023-04-07T10:59:33;100846.06;;;10.42;36.69
55347;BME280;41218;55.700;38.270;2023-04-07T11:04:41;100838.22;;;10.45;35.01
55347;BME280;41218;55.700;38.270;2023-04-07T11:09:42;100834.28;;;10.46;36.18
55347;BME280;41218;55.700;38.270;2023-04-07T11:14:43;100841.22;;;10.52;36.25
55347;BME280;41218;55.700;38.270;2023-04-07T11:19:51;100833.31;;;10.62;36.51
55347;BME280;41218;55.700;38.270;2023-04-07T11:24:51;100838.47;;;10.64;36.93
55347;BME280;41218;55.700;38.270;2023-04-07T11:29:52;100835.38;;;10.66;36.55
55347;BME280;41218;55.700;38.270;2023-04-07T11:34:53;100824.66;;;10.64;36.87
55347;BME280;41218;55.700;38.270;2023-04-07T11:39:56;100826.28;;;10.65;37.07
55347;BME280;41218;55.700;38.270;2023-04-07T11:44:57;100830.75;;;10.70;37.00
55347;BME280;41218;55.700;38.270;2023-04-07T11:49:57;100818.56;;;10.71;37.03
55347;BME280;41218;55.700;38.270;2023-04-07T11:54:58;100830.88;;;10.73;36.46
55347;BME280;41218;55.700;38.270;2023-04-07T12:00:10;100823.28;;;10.70;36.03
55347;BME280;41218;55.700;38.270;2023-04-07T12:05:11;100817.19;;;10.65;37.47
55347;BME280;41218;55.700;38.270;2023-04-07T12:10:19;100823.97;;;10.67;36.12
55347;BME280;41218;55.700;38.270;2023-04-07T12:15:20;100819.38;;;10.71;36.91
55347;BME280;41218;55.700;38.270;2023-04-07T12:20:21;100828.13;;;10.73;36.60
55347;BME280;41218;55.700;38.270;2023-04-07T12:25:22;100830.75;;;10.70;36.60
55347;BME280;41218;55.700;38.270;2023-04-07T12:30:22;100821.34;;;10.71;36.19
55347;BME280;41218;55.700;38.270;2023-04-07T12:35:23;100820.63;;;10.74;36.32
55347;BME280;41218;55.700;38.270;2023-04-07T12:40:24;100827.53;;;10.80;36.19
55347;BME280;41218;55.700;38.270;2023-04-07T12:45:25;100834.91;;;10.88;35.73
55347;BME280;41218;55.700;38.270;2023-04-07T12:50:25;100818.78;;;10.78;36.20
55347;BME280;41218;55.700;38.270;2023-04-07T12:55:26;100815.91;;;10.74;36.16
55347;BME280;41218;55.700;38.270;2023-04-07T13:00:26;100824.31;;;10.78;36.44
55347;BME280;41218;55.700;38.270;2023-04-07T13:05:28;100831.34;;;10.75;36.15
55347;BME280;41218;55.700;38.270;2023-04-07T13:10:28;100818.13;;;10.81;35.73
55347;BME280;41218;55.700;38.270;2023-04-07T13:15:29;100826.16;;;10.74;35.94
55347;BME280;41218;55.700;38.270;2023-04-07T13:20:29;100833.66;;;10.73;35.81
55347;BME280;41218;55.700;38.270;2023-04-07T13:25:30;100827.66;;;10.71;35.91
55347;BME280;41218;55.700;38.270;2023-04-07T13:30:30;100836.53;;;10.77;35.85
55347;BME280;41218;55.700;38.270;2023-04-07T13:35:31;100825.81;;;10.75;36.16
55347;BME280;41218;55.700;38.270;2023-04-07T13:40:34;100828.94;;;10.74;36.32
55347;BME280;41218;55.700;38.270;2023-04-07T13:45:35;100836.19;;;10.78;36.43
55347;BME280;41218;55.700;38.270;2023-04-07T13:50:36;100825.03;;;10.75;36.26
55347;BME280;41218;55.700;38.270;2023-04-07T13:55:37;100825.03;;;10.75;36.24
55347;BME280;41218;55.700;38.270;2023-04-07T14:00:37;100831.94;;;10.81;36.48
55347;BME280;41218;55.700;38.270;2023-04-07T14:05:39;100829.19;;;10.81;36.43
55347;BME280;41218;55.700;38.270;2023-04-07T14:10:40;100818.00;;;10.77;36.37
55347;BME280;41218;55.700;38.270;2023-04-07T14:15:41;100828.25;;;10.77;36.17
55347;BME280;41218;55.700;38.270;2023-04-07T14:20:42;100828.94;;;10.74;36.15
55347;BME280;41218;55.700;38.270;2023-04-07T14:25:42;100826.88;;;10.71;36.26
55347;BME280;41218;55.700;38.270;2023-04-07T14:30:43;100821.88;;;10.64;36.29
55347;BME280;41218;55.700;38.270;2023-04-07T14:35:43;100826.16;;;10.61;36.48
55347;BME280;41218;55.700;38.270;2023-04-07T14:40:44;100822.78;;;10.56;36.62
55347;BME280;41218;55.700;38.270;2023-04-07T14:45:45;100817.50;;;10.51;36.55
55347;BME280;41218;55.700;38.270;2023-04-07T14:50:45;100817.84;;;10.49;36.63
55347;BME280;41218;55.700;38.270;2023-04-07T14:55:46;100822.31;;;10.41;36.72
55347;BME280;41218;55.700;38.270;2023-04-07T15:00:46;100825.97;;;10.33;36.75
55347;BME280;41218;55.700;38.270;2023-04-07T15:05:47;100824.22;;;10.29;36.64
55347;BME280;41218;55.700;38.270;2023-04-07T15:10:47;100820.25;;;10.17;36.55
55347;BME280;41218;55.700;38.270;2023-04-07T15:15:48;100829.91;;;10.11;36.73
55347;BME280;41218;55.700;38.270;2023-04-07T15:20:48;100819.91;;;10.07;37.29
55347;BME280;41218;55.700;38.270;2023-04-07T15:25:49;100826.56;;;10.06;37.13
55347;BME280;41218;55.700;38.270;2023-04-07T15:30:55;100832.16;;;9.97;37.22
55347;BME280;41218;55.700;38.270;2023-04-07T15:35:55;100829.50;;;9.88;37.24
55347;BME280;41218;55.700;38.270;2023-04-07T15:40:57;100832.22;;;9.76;37.27
55347;BME280;41218;55.700;38.270;2023-04-07T15:45:58;100840.56;;;9.67;37.74
55347;BME280;41218;55.700;38.270;2023-04-07T15:50:58;100839.47;;;9.59;37.86
55347;BME280;41218;55.700;38.270;2023-04-07T15:55:59;100837.78;;;9.46;37.87
55347;BME280;41218;55.700;38.270;2023-04-07T16:00:59;100849.38;;;9.39;38.63
55347;BME280;41218;55.700;38.270;2023-04-07T16:06:00;100859.63;;;9.30;39.80
55347;BME280;41218;55.700;38.270;2023-04-07T16:11:00;100867.03;;;9.17;40.84
55347;BME280;41218;55.700;38.270;2023-04-07T16:16:01;100866.13;;;9.05;41.74
55347;BME280;41218;55.700;38.270;2023-04-07T16:21:05;100871.56;;;8.83;42.80
55347;BME280;41218;55.700;38.270;2023-04-07T16:26:06;100870.78;;;8.74;43.28
55347;BME280;41218;55.700;38.270;2023-04-07T16:31:06;100880.06;;;8.61;43.98
55347;BME280;41218;55.700;38.270;2023-04-07T16:36:08;100885.94;;;8.51;45.10
55347;BME280;41218;55.700;38.270;2023-04-07T16:41:08;100889.31;;;8.39;45.77
55347;BME280;41218;55.700;38.270;2023-04-07T16:46:09;100893.72;;;8.22;46.54
55347;BME280;41218;55.700;38.270;2023-04-07T16:51:09;100898.47;;;8.13;46.69
55347;BME280;41218;55.700;38.270;2023-04-07T16:56:16;100901.06;;;8.01;47.76
55347;BME280;41218;55.700;38.270;2023-04-07T17:01:17;100905.25;;;7.90;47.88
55347;BME280;41218;55.700;38.270;2023-04-07T17:06:18;100907.66;;;7.74;48.30
55347;BME280;41218;55.700;38.270;2023-04-07T17:11:18;100921.56;;;7.60;48.91
55347;BME280;41218;55.700;38.270;2023-04-07T17:16:19;100924.31;;;7.51;49.45
55347;BME280;41218;55.700;38.270;2023-04-07T17:21:19;100918.44;;;7.35;50.10
55347;BME280;41218;55.700;38.270;2023-04-07T17:26:20;100926.66;;;7.27;50.60
55347;BME280;41218;55.700;38.270;2023-04-07T17:31:21;100928.91;;;7.16;51.02
55347;BME280;41218;55.700;38.270;2023-04-07T17:36:21;100930.81;;;7.07;51.77
55347;BME280;41218;55.700;38.270;2023-04-07T17:41:22;100941.28;;;6.96;51.98
55347;BME280;41218;55.700;38.270;2023-04-07T17:46:22;100946.22;;;6.85;52.59
55347;BME280;41218;55.700;38.270;2023-04-07T17:51:26;100941.44;;;6.68;53.18
55347;BME280;41218;55.700;38.270;2023-04-07T17:56:26;100954.19;;;6.64;53.55
55347;BME280;41218;55.700;38.270;2023-04-07T18:01:27;100952.50;;;6.54;53.65
55347;BME280;41218;55.700;38.270;2023-04-07T18:06:28;100953.06;;;6.42;53.72
55347;BME280;41218;55.700;38.270;2023-04-07T18:11:29;100960.44;;;6.33;54.22
55347;BME280;41218;55.700;38.270;2023-04-07T18:16:29;100952.16;;;6.25;54.55
55347;BME280;41218;55.700;38.270;2023-04-07T18:21:30;100946.81;;;6.06;54.87
55347;BME280;41218;55.700;38.270;2023-04-07T18:26:30;100960.53;;;6.06;55.13
55347;BME280;41218;55.700;38.270;2023-04-07T18:31:31;100967.56;;;5.98;55.22
55347;BME280;41218;55.700;38.270;2023-04-07T18:36:31;100961.66;;;5.91;55.69
55347;BME280;41218;55.700;38.270;2023-04-07T18:41:32;100961.09;;;5.80;55.61
55347;BME280;41218;55.700;38.270;2023-04-07T18:46:33;100965.38;;;5.72;55.58
55347;BME280;41218;55.700;38.270;2023-04-07T18:51:33;100968.34;;;5.62;56.05
55347;BME280;41218;55.700;38.270;2023-04-07T18:56:34;100969.84;;;5.54;56.23
55347;BME280;41218;55.700;38.270;2023-04-07T19:01:35;100973.03;;;5.48;56.38
55347;BME280;41218;55.700;38.270;2023-04-07T19:06:35;100972.91;;;5.39;56.36
55347;BME280;41218;55.700;38.270;2023-04-07T19:11:36;100978.00;;;5.32;56.59
55347;BME280;41218;55.700;38.270;2023-04-07T19:16:37;100981.16;;;5.25;57.14
55347;BME280;41218;55.700;38.270;2023-04-07T19:21:37;100978.91;;;5.13;56.91
55347;BME280;41218;55.700;38.270;2023-04-07T19:26:39;100975.13;;;5.09;56.99
55347;BME280;41218;55.700;38.270;2023-04-07T19:31:40;100983.16;;;5.06;57.11
55347;BME280;41218;55.700;38.270;2023-04-07T19:36:40;100987.91;;;5.00;57.20
55347;BME280;41218;55.700;38.270;2023-04-07T19:41:41;100982.00;;;4.93;57.33
55347;BME280;41218;55.700;38.270;2023-04-07T19:46:41;100989.81;;;4.86;57.71
55347;BME280;41218;55.700;38.270;2023-04-07T19:51:42;100972.59;;;4.66;57.96
55347;BME280;41218;55.700;38.270;2023-04-07T19:56:42;100990.38;;;4.69;57.78
55347;BME280;41218;55.700;38.270;2023-04-07T20:01:43;100991.88;;;4.61;58.22
55347;BME280;41218;55.700;38.270;2023-04-07T20:06:43;100982.09;;;4.55;58.34
55347;BME280;41218;55.700;38.270;2023-04-07T20:11:44;100987.97;;;4.48;58.52
55347;BME280;41218;55.700;38.270;2023-04-07T20:16:45;100987.81;;;4.39;58.09
55347;BME280;41218;55.700;38.270;2023-04-07T20:21:45;100984.16;;;4.30;58.68
55347;BME280;41218;55.700;38.270;2023-04-07T20:26:46;100992.94;;;4.27;58.46
55347;BME280;41218;55.700;38.270;2023-04-07T20:31:46;100993.53;;;4.24;58.82
55347;BME280;41218;55.700;38.270;2023-04-07T20:36:47;100993.38;;;4.15;59.01
55347;BME280;41218;55.700;38.270;2023-04-07T20:41:48;100997.63;;;4.08;59.01
55347;BME280;41218;55.700;38.270;2023-04-07T20:46:48;100992.50;;;4.01;59.24
55347;BME280;41218;55.700;38.270;2023-04-07T20:51:49;100982.22;;;3.93;59.05
55347;BME280;41218;55.700;38.270;2023-04-07T20:56:49;100995.09;;;3.92;59.21
55347;BME280;41218;55.700;38.270;2023-04-07T21:01:50;100992.72;;;3.86;59.14
55347;BME280;41218;55.700;38.270;2023-04-07T21:06:51;101001.50;;;3.83;59.47
55347;BME280;41218;55.700;38.270;2023-04-07T21:11:51;101000.75;;;3.77;59.29
55347;BME280;41218;55.700;38.270;2023-04-07T21:16:52;100998.09;;;3.72;59.34
55347;BME280;41218;55.700;38.270;2023-04-07T21:21:52;101000.31;;;3.70;59.53
55347;BME280;41218;55.700;38.270;2023-04-07T21:26:53;101005.81;;;3.65;59.52
55347;BME280;41218;55.700;38.270;2023-04-07T21:31:53;101002.06;;;3.60;59.58
55347;BME280;41218;55.700;38.270;2023-04-07T21:36:54;100983.88;;;3.51;59.62
55347;BME280;41218;55.700;38.270;2023-04-07T21:41:55;101004.38;;;3.48;59.91
55347;BME280;41218;55.700;38.270;2023-04-07T21:46:56;101008.16;;;3.52;59.80
55347;BME280;41218;55.700;38.270;2023-04-07T21:51:56;101011.78;;;3.48;59.65
55347;BME280;41218;55.700;38.270;2023-04-07T21:56:58;100992.00;;;3.32;59.58
55347;BME280;41218;55.700;38.270;2023-04-07T22:02:00;101012.19;;;3.36;59.83
55347;BME280;41218;55.700;38.270;2023-04-07T22:07:01;101011.94;;;3.32;59.98
55347;BME280;41218;55.700;38.270;2023-04-07T22:12:02;101009.81;;;3.29;60.22
55347;BME280;41218;55.700;38.270;2023-04-07T22:17:02;100997.66;;;3.16;59.98
55347;BME280;41218;55.700;38.270;2023-04-07T22:22:03;101001.72;;;3.19;60.32
55347;BME280;41218;55.700;38.270;2023-04-07T22:27:03;101011.88;;;3.13;60.13
55347;BME280;41218;55.700;38.270;2023-04-07T22:32:04;101010.31;;;3.07;60.02
55347;BME280;41218;55.700;38.270;2023-04-07T22:37:05;101008.97;;;3.05;60.25
55347;BME280;41218;55.700;38.270;2023-04-07T22:42:05;101004.13;;;2.96;60.23
55347;BME280;41218;55.700;38.270;2023-04-07T22:47:06;101009.88;;;2.95;60.22
55347;BME280;41218;55.700;38.270;2023-04-07T22:52:07;101004.22;;;2.86;60.25
55347;BME280;41218;55.700;38.270;2023-04-07T22:57:07;101004.00;;;2.83;60.46
55347;BME280;41218;55.700;38.270;2023-04-07T23:02:08;101005.13;;;2.76;60.74
55347;BME280;41218;55.700;38.270;2023-04-07T23:07:08;101009.25;;;2.74;60.39
55347;BME280;41218;55.700;38.270;2023-04-07T23:12:09;101005.47;;;2.70;60.77
55347;BME280;41218;55.700;38.270;2023-04-07T23:17:09;101010.16;;;2.64;60.59
55347;BME280;41218;55.700;38.270;2023-04-07T23:22:10;101006.66;;;2.58;60.52
55347;BME280;41218;55.700;38.270;2023-04-07T23:27:11;101002.00;;;2.59;60.21
55347;BME280;41218;55.700;38.270;2023-04-07T23:32:12;100998.53;;;2.48;60.66
55347;BME280;41218;55.700;38.270;2023-04-07T23:37:12;100999.69;;;2.42;60.99
55347;BME280;41218;55.700;38.270;2023-04-07T23:42:13;101000.81;;;2.36;60.99
55347;BME280;41218;55.700;38.270;2023-04-07T23:47:14;100999.50;;;2.28;60.78
55347;BME280;41218;55.700;38.270;2023-04-07T23:52:14;100980.47;;;2.18;60.92
55347;BME280;41218;55.700;38.270;2023-04-07T23:57:15;100995.19;;;2.22;61.22
